Time;durP1;ratioP1;P1;durP2;ratioP2;P2;SDS_P1;SDS_P2;PMS_P1;PMS_P2;Temp;Humidity;BMP_temperature;BMP_pressure;BME280_temperature;BME280_humidity;BME280_pressure;Samples;Min_cycle;Max_cycle;Signal;HPM_P1;HPM_P2
2021/03/17 00:00:52;;;;;;;10.50;6.10;;;3.30;98.00;;;;;;2063974;28;20050;-73
2021/03/17 00:02:12;;;;;;;12.65;5.78;;;3.30;98.20;;;;;;2064562;28;20462;-73
2021/03/17 00:03:31;;;;;;;11.77;6.05;;;3.30;98.20;;;;;;2064088;28;20810;-73
2021/03/17 00:04:50;;;;;;;12.05;5.72;;;3.30;98.20;;;;;;2064493;28;20031;-73
2021/03/17 00:06:11;;;;;;;11.48;5.97;;;3.30;98.30;;;;;;2064444;28;20038;-73
2021/03/17 00:07:30;;;;;;;14.32;6.90;;;3.30;98.40;;;;;;2064638;28;20122;-73
2021/03/17 00:08:49;;;;;;;10.75;6.28;;;3.30;98.40;;;;;;2064596;28;20038;-73
2021/03/17 00:10:09;;;;;;;12.80;6.55;;;3.30;98.50;;;;;;2065890;28;20927;-73
2021/03/17 00:11:28;;;;;;;16.63;7.07;;;3.30;98.50;;;;;;2067491;28;20034;-73
2021/03/17 00:12:49;;;;;;;14.55;6.80;;;3.30;98.70;;;;;;2067188;28;20026;-73
2021/03/17 00:14:08;;;;;;;13.13;6.70;;;3.30;98.60;;;;;;2064128;28;20042;-73
2021/03/17 00:15:33;;;;;;;14.48;6.40;;;3.30;98.70;;;;;;2064710;28;20437;-73
2021/03/17 00:16:52;;;;;;;13.25;7.10;;;3.30;98.70;;;;;;2072200;28;20061;-73
2021/03/17 00:18:13;;;;;;;14.40;7.28;;;3.30;98.80;;;;;;2067577;28;20026;-73
2021/03/17 00:19:33;;;;;;;12.23;6.25;;;3.30;98.80;;;;;;2064526;28;20038;-73
2021/03/17 00:20:52;;;;;;;13.82;6.70;;;3.30;98.80;;;;;;2064259;28;20026;-73
2021/03/17 00:22:11;;;;;;;11.55;6.55;;;3.30;98.80;;;;;;2064488;28;20046;-74
2021/03/17 00:23:30;;;;;;;14.77;7.22;;;3.30;98.80;;;;;;2064122;28;20030;-73
2021/03/17 00:24:49;;;;;;;16.88;7.40;;;3.30;98.80;;;;;;2064407;28;20050;-73
2021/03/17 00:26:08;;;;;;;13.13;6.60;;;3.30;98.80;;;;;;2064535;28;20112;-73
2021/03/17 00:27:27;;;;;;;11.55;6.38;;;3.40;98.80;;;;;;2072242;28;20517;-74
2021/03/17 00:28:47;;;;;;;13.73;6.55;;;3.40;98.80;;;;;;2072037;28;20034;-74
2021/03/17 00:30:07;;;;;;;15.90;7.10;;;3.40;98.80;;;;;;2063871;28;20042;-74
2021/03/17 00:31:27;;;;;;;13.63;6.63;;;3.40;98.80;;;;;;2064074;28;20038;-73
2021/03/17 00:32:48;;;;;;;10.65;6.32;;;3.40;98.80;;;;;;2064503;28;20038;-73
2021/03/17 00:34:07;;;;;;;10.88;6.40;;;3.40;98.80;;;;;;2063908;28;20034;-73
2021/03/17 00:35:28;;;;;;;11.00;6.18;;;3.30;98.70;;;;;;2064704;28;20026;-74
2021/03/17 00:36:47;;;;;;;10.80;6.05;;;3.30;98.60;;;;;;2064657;28;20042;-73
2021/03/17 00:38:06;;;;;;;11.15;6.30;;;3.30;98.60;;;;;;2064522;28;20030;-73
2021/03/17 00:39:25;;;;;;;11.30;5.90;;;3.30;98.70;;;;;;2064511;28;20039;-73
2021/03/17 00:40:45;;;;;;;9.98;5.90;;;3.30;98.80;;;;;;2064220;28;20030;-73
2021/03/17 00:42:04;;;;;;;9.75;6.10;;;3.20;98.80;;;;;;2064514;28;20034;-73
2021/03/17 00:43:24;;;;;;;10.60;6.28;;;3.20;98.90;;;;;;2071398;28;20418;-73
2021/03/17 00:44:43;;;;;;;11.45;5.82;;;3.20;99.00;;;;;;2067545;28;20078;-73
2021/03/17 00:46:02;;;;;;;11.77;6.30;;;3.30;99.20;;;;;;2064805;28;20046;-73
2021/03/17 00:47:03;;;;;;;11.43;6.22;;;3.30;99.30;;;;;;2063978;28;20092;-74
2021/03/17 00:48:06;;;;;;;11.27;5.90;;;3.30;99.30;;;;;;2060946;28;20038;-74
2021/03/17 00:49:10;;;;;;;11.45;6.10;;;3.30;99.30;;;;;;2062245;28;20026;-73
2021/03/17 00:50:13;;;;;;;10.43;6.18;;;3.40;99.30;;;;;;2069712;28;20490;-73
2021/03/17 00:51:14;;;;;;;9.52;6.03;;;3.40;99.20;;;;;;2078746;28;20026;-73
2021/03/17 00:52:33;;;;;;;12.95;6.28;;;3.40;99.10;;;;;;2078666;28;20038;-73
2021/03/17 00:53:53;;;;;;;11.70;6.20;;;3.40;99.10;;;;;;2067596;28;20061;-74
2021/03/17 00:54:56;;;;;;;12.55;6.53;;;3.50;98.90;;;;;;2063803;28;20034;-73
2021/03/17 00:56:13;;;;;;;12.32;6.50;;;3.50;98.90;;;;;;2057997;28;20074;-73
2021/03/17 00:57:16;;;;;;;14.45;7.85;;;3.50;98.80;;;;;;2063986;28;20257;-74
2021/03/17 00:58:17;;;;;;;15.95;7.47;;;3.50;98.50;;;;;;2064297;28;20034;-73
2021/03/17 00:59:17;;;;;;;12.75;7.00;;;3.50;98.30;;;;;;2071624;28;20034;-73
2021/03/17 01:00:19;;;;;;;12.25;6.75;;;3.50;98.30;;;;;;2071884;28;20425;-73
2021/03/17 01:01:19;;;;;;;12.43;6.78;;;3.50;98.30;;;;;;2063610;28;20026;-73
2021/03/17 01:02:20;;;;;;;10.60;6.15;;;3.60;98.40;;;;;;2055681;28;20043;-73
2021/03/17 01:03:20;;;;;;;9.18;6.18;;;3.60;98.40;;;;;;2063346;28;20057;-74
2021/03/17 01:04:21;;;;;;;14.40;7.20;;;3.60;98.40;;;;;;2064378;28;20030;-74
2021/03/17 01:05:22;;;;;;;14.20;7.40;;;3.60;98.30;;;;;;2064520;28;20571;-74
2021/03/17 01:06:22;;;;;;;13.70;7.03;;;3.60;98.20;;;;;;2064359;28;20050;-73
2021/03/17 01:07:23;;;;;;;11.02;6.78;;;3.60;98.20;;;;;;2063995;28;20029;-73
2021/03/17 01:08:23;;;;;;;13.88;7.00;;;3.60;98.10;;;;;;2065179;28;20069;-73
2021/03/17 01:09:24;;;;;;;12.93;7.38;;;3.60;98.10;;;;;;2073786;28;20038;-73
2021/03/17 01:10:35;;;;;;;11.40;7.30;;;3.50;98.00;;;;;;2073475;28;20062;-74
2021/03/17 01:11:36;;;;;;;13.90;7.25;;;3.50;98.00;;;;;;2072106;28;20129;-74
2021/03/17 01:12:37;;;;;;;11.77;6.93;;;3.50;98.00;;;;;;2065764;28;20485;-74
2021/03/17 01:13:37;;;;;;;11.35;6.90;;;3.50;98.00;;;;;;2065043;28;20120;-74
2021/03/17 01:14:39;;;;;;;13.63;7.30;;;3.50;98.00;;;;;;2065421;28;20035;-74
2021/03/17 01:15:40;;;;;;;12.73;7.03;;;3.40;98.00;;;;;;2066266;28;20088;-74
2021/03/17 01:16:41;;;;;;;11.32;6.70;;;3.40;98.10;;;;;;2066049;28;20114;-74
2021/03/17 01:17:41;;;;;;;12.45;6.93;;;3.40;98.20;;;;;;2065223;28;20038;-73
2021/03/17 01:18:42;;;;;;;13.32;8.07;;;3.40;98.20;;;;;;2065455;28;20026;-74
2021/03/17 01:19:43;;;;;;;13.48;7.60;;;3.40;98.20;;;;;;2065647;28;20082;-74
2021/03/17 01:20:43;;;;;;;13.50;7.78;;;3.40;98.20;;;;;;2065678;28;20023;-74
2021/03/17 01:21:44;;;;;;;14.32;7.85;;;3.40;98.20;;;;;;2066031;28;20022;-74
2021/03/17 01:22:44;;;;;;;12.63;7.50;;;3.40;98.30;;;;;;2065368;28;20030;-73
2021/03/17 01:23:45;;;;;;;16.42;7.70;;;3.40;98.30;;;;;;2064694;28;20081;-74
2021/03/17 01:24:45;;;;;;;13.52;7.72;;;3.40;98.30;;;;;;2065724;28;20117;-74
2021/03/17 01:25:46;;;;;;;16.85;8.70;;;3.40;98.20;;;;;;2065810;28;20065;-74
2021/03/17 01:26:47;;;;;;;14.88;8.35;;;3.40;98.20;;;;;;2065756;28;20046;-74
2021/03/17 01:27:48;;;;;;;13.25;7.68;;;3.40;98.10;;;;;;2066037;28;20031;-74
2021/03/17 01:28:48;;;;;;;19.42;9.68;;;3.40;98.10;;;;;;2073344;28;20109;-74
2021/03/17 01:29:49;;;;;;;19.67;9.40;;;3.50;98.00;;;;;;2065035;28;20038;-74
2021/03/17 01:30:57;;;;;;;17.10;8.93;;;3.40;97.60;;;;;;2064669;28;20061;-74
2021/03/17 01:32:00;;;;;;;18.85;9.40;;;3.50;97.60;;;;;;2065515;28;20031;-74
2021/03/17 01:33:02;;;;;;;15.27;8.73;;;3.40;97.70;;;;;;2065384;28;20026;-74
2021/03/17 01:34:03;;;;;;;16.08;8.77;;;3.40;97.70;;;;;;2065047;28;20034;-73
2021/03/17 01:35:11;;;;;;;15.15;7.97;;;3.40;97.70;;;;;;2064991;28;20022;-74
2021/03/17 01:36:11;;;;;;;13.40;8.05;;;3.40;97.70;;;;;;2057792;28;20622;-74
2021/03/17 01:37:12;;;;;;;15.07;8.63;;;3.40;97.60;;;;;;2064853;28;20054;-74
2021/03/17 01:38:16;;;;;;;16.02;8.00;;;3.40;97.90;;;;;;2065590;28;20522;-74
2021/03/17 01:39:16;;;;;;;15.90;8.50;;;3.40;97.60;;;;;;2065570;28;20481;-74
2021/03/17 01:40:18;;;;;;;15.02;8.38;;;3.40;97.60;;;;;;2072841;28;20117;-74
2021/03/17 01:41:18;;;;;;;14.85;8.35;;;3.40;97.60;;;;;;2072609;28;20041;-74
2021/03/17 01:42:19;;;;;;;15.15;8.55;;;3.40;97.50;;;;;;2064954;28;20026;-74
2021/03/17 01:43:20;;;;;;;13.63;7.38;;;3.30;97.90;;;;;;2065101;28;20034;-74
2021/03/17 01:44:21;;;;;;;12.48;7.55;;;3.30;97.60;;;;;;2072969;28;20034;-74
2021/03/17 01:45:23;;;;;;;16.45;8.43;;;3.20;97.60;;;;;;2072820;28;20060;-74
2021/03/17 01:46:24;;;;;;;12.45;7.65;;;3.20;97.70;;;;;;2065370;28;20062;-74
2021/03/17 01:47:26;;;;;;;13.82;7.85;;;3.10;97.70;;;;;;2065501;28;20030;-74
2021/03/17 01:48:26;;;;;;;15.88;7.78;;;3.10;97.80;;;;;;2065776;28;20442;-74
2021/03/17 01:49:27;;;;;;;15.82;7.90;;;3.00;98.00;;;;;;2065680;28;20062;-74
2021/03/17 01:50:31;;;;;;;14.45;8.57;;;3.00;98.00;;;;;;2064743;28;20026;-74
2021/03/17 01:51:31;;;;;;;14.98;8.95;;;3.00;98.20;;;;;;2064732;28;20026;-74
2021/03/17 01:52:32;;;;;;;14.48;8.52;;;3.00;98.40;;;;;;2065316;28;20049;-74
2021/03/17 01:53:35;;;;;;;14.45;8.63;;;2.90;98.30;;;;;;2064952;28;20028;-74
2021/03/17 01:54:36;;;;;;;17.88;9.43;;;2.90;98.40;;;;;;2065301;28;20578;-75
2021/03/17 01:55:38;;;;;;;15.55;8.60;;;2.90;98.60;;;;;;2065394;28;20064;-74
2021/03/17 01:56:38;;;;;;;15.05;8.50;;;2.90;98.50;;;;;;2065486;28;20139;-74
2021/03/17 01:57:39;;;;;;;16.98;9.50;;;2.80;98.50;;;;;;2065251;28;20034;-74
2021/03/17 01:58:40;;;;;;;15.98;9.52;;;2.80;98.60;;;;;;2065368;28;20037;-74
2021/03/17 01:59:40;;;;;;;19.02;9.63;;;2.80;98.70;;;;;;2065337;28;20034;-75
2021/03/17 02:00:41;;;;;;;20.95;11.18;;;2.80;98.80;;;;;;2065013;28;20030;-74
2021/03/17 02:01:42;;;;;;;16.80;9.70;;;2.80;99.00;;;;;;2065408;28;20923;-74
2021/03/17 02:02:48;;;;;;;19.33;10.05;;;2.80;98.90;;;;;;2072746;28;20112;-74
2021/03/17 04:38:21;;;;;;;21.67;11.70;;;3.20;97.70;;;;;;2064601;28;20166;-74
2021/03/17 04:39:23;;;;;;;23.65;11.77;;;3.20;97.60;;;;;;2067354;28;20499;-74
2021/03/17 04:40:24;;;;;;;24.85;12.13;;;3.20;97.60;;;;;;2074812;28;20042;-74
2021/03/17 04:41:26;;;;;;;24.30;11.65;;;3.20;97.60;;;;;;2074609;28;20029;-74
2021/03/17 04:42:27;;;;;;;23.02;11.95;;;3.20;98.00;;;;;;2064413;28;20040;-74
2021/03/17 04:43:29;;;;;;;24.38;11.73;;;3.20;97.60;;;;;;2066410;28;20022;-74
2021/03/17 04:44:31;;;;;;;23.70;11.85;;;3.20;97.60;;;;;;2067066;28;20018;-74
2021/03/17 04:45:33;;;;;;;24.77;11.88;;;3.10;97.50;;;;;;2074351;28;20492;-74
2021/03/17 04:46:35;;;;;;;21.42;12.25;;;3.10;97.60;;;;;;2074685;28;20498;-75
2021/03/17 04:47:38;;;;;;;25.23;11.48;;;3.10;97.70;;;;;;2074750;28;20105;-75
2021/03/17 04:48:42;;;;;;;25.38;11.77;;;3.10;97.60;;;;;;2074132;28;20567;-74
2021/03/17 04:49:44;;;;;;;22.38;11.95;;;3.10;97.50;;;;;;2066384;28;20651;-74
2021/03/17 04:50:48;;;;;;;24.88;11.52;;;3.10;97.50;;;;;;2066770;28;20064;-75
2021/03/17 04:51:50;;;;;;;20.30;11.65;;;3.10;97.50;;;;;;2074738;28;20084;-74
2021/03/17 04:52:51;;;;;;;19.88;11.50;;;3.10;97.60;;;;;;2075028;28;20033;-75
2021/03/17 04:53:51;;;;;;;21.23;11.25;;;3.10;97.50;;;;;;2065968;28;20101;-75
2021/03/17 04:54:53;;;;;;;21.77;11.48;;;3.20;97.60;;;;;;2066905;28;20026;-74
2021/03/17 04:55:53;;;;;;;21.15;11.88;;;3.10;97.80;;;;;;2066884;28;20449;-74
2021/03/17 04:56:55;;;;;;;25.23;12.07;;;3.10;97.50;;;;;;2066975;28;20022;-75
2021/03/17 04:57:58;;;;;;;25.00;11.80;;;3.10;97.50;;;;;;2066843;28;20062;-75
2021/03/17 04:59:01;;;;;;;20.10;11.63;;;3.10;97.40;;;;;;2066780;28;20234;-75
2021/03/17 05:00:06;;;;;;;24.77;11.77;;;3.10;97.30;;;;;;2074560;28;20540;-74
2021/03/17 05:01:09;;;;;;;21.67;11.30;;;3.10;97.50;;;;;;2073781;28;20026;-75
2021/03/17 05:02:11;;;;;;;25.17;11.93;;;3.10;97.40;;;;;;2066833;28;20026;-74
2021/03/17 05:03:13;;;;;;;27.20;12.00;;;3.10;97.30;;;;;;2073928;28;20061;-75
2021/03/17 05:04:15;;;;;;;22.58;11.52;;;3.00;97.30;;;;;;2074084;28;20758;-74
2021/03/17 05:05:16;;;;;;;23.20;11.18;;;3.00;97.30;;;;;;2066424;28;20042;-74
2021/03/17 05:06:17;;;;;;;24.73;11.45;;;3.00;97.20;;;;;;2074566;28;20044;-74
2021/03/17 05:07:18;;;;;;;22.98;11.70;;;3.10;97.20;;;;;;2074602;28;20068;-74
2021/03/17 05:08:20;;;;;;;20.50;11.57;;;3.10;97.10;;;;;;2066539;28;20034;-74
2021/03/17 05:09:21;;;;;;;20.85;11.45;;;3.10;97.10;;;;;;2074513;28;20025;-74
2021/03/17 05:10:24;;;;;;;23.63;11.70;;;3.10;97.20;;;;;;2074417;28;20065;-74
2021/03/17 05:11:25;;;;;;;20.67;11.27;;;3.10;97.20;;;;;;2067271;28;20031;-74
2021/03/17 05:12:28;;;;;;;20.15;11.10;;;3.10;97.30;;;;;;2066853;28;20034;-74
2021/03/17 05:13:29;;;;;;;22.13;12.00;;;3.10;97.40;;;;;;2066491;28;20042;-74
2021/03/17 05:14:33;;;;;;;21.05;11.90;;;3.10;97.40;;;;;;2066834;28;20134;-74
2021/03/17 05:15:34;;;;;;;24.75;12.20;;;3.10;97.50;;;;;;2066924;28;20022;-74
2021/03/17 05:16:36;;;;;;;24.73;12.85;;;3.10;97.60;;;;;;2066884;28;20034;-74
2021/03/17 05:17:38;;;;;;;24.52;12.55;;;3.10;97.60;;;;;;2066899;28;20038;-74
2021/03/17 05:18:40;;;;;;;24.17;12.10;;;3.00;97.30;;;;;;2066779;28;20034;-74
2021/03/17 05:19:42;;;;;;;23.83;12.10;;;3.00;97.10;;;;;;2074366;28;20061;-74
2021/03/17 05:20:48;;;;;;;23.40;12.00;;;3.00;97.10;;;;;;2073856;28;20022;-75
2021/03/17 05:21:49;;;;;;;22.08;13.10;;;3.00;97.20;;;;;;2067114;28;20072;-74
2021/03/17 05:22:51;;;;;;;23.35;13.43;;;3.00;97.20;;;;;;2066948;28;20019;-74
2021/03/17 05:23:52;;;;;;;28.85;13.55;;;2.90;97.20;;;;;;2066335;28;20018;-74
2021/03/17 05:24:53;;;;;;;27.02;13.45;;;3.00;97.40;;;;;;2066922;28;20023;-74
2021/03/17 05:25:54;;;;;;;26.00;13.25;;;2.90;97.40;;;;;;2067119;28;20093;-74
2021/03/17 05:26:55;;;;;;;24.80;13.23;;;2.90;97.50;;;;;;2067163;28;20019;-75
2021/03/17 05:28:04;;;;;;;25.83;14.00;;;3.00;97.60;;;;;;2066971;28;20034;-75
2021/03/17 05:29:06;;;;;;;29.48;14.52;;;3.00;97.50;;;;;;2074753;28;20113;-74
2021/03/17 05:30:09;;;;;;;29.40;14.35;;;3.00;97.60;;;;;;2074512;28;20420;-75
2021/03/17 05:31:10;;;;;;;28.83;14.05;;;2.90;97.60;;;;;;2066940;28;20045;-74
2021/03/17 05:32:13;;;;;;;24.80;14.07;;;3.00;97.60;;;;;;2074327;28;20460;-75
2021/03/17 05:33:16;;;;;;;31.73;15.00;;;2.90;97.40;;;;;;2073625;28;20030;-75
2021/03/17 05:34:17;;;;;;;28.95;15.10;;;2.90;97.50;;;;;;2066493;28;20030;-74
2021/03/17 05:35:18;;;;;;;24.98;14.15;;;2.90;97.50;;;;;;2059521;28;20027;-75
2021/03/17 05:36:18;;;;;;;21.90;14.00;;;2.90;97.40;;;;;;2058757;28;20232;-74
2021/03/17 05:37:19;;;;;;;25.50;13.50;;;2.90;97.50;;;;;;2074795;28;20057;-74
2021/03/17 05:38:19;;;;;;;25.55;14.25;;;2.90;97.50;;;;;;2074722;28;20040;-74
2021/03/17 05:39:20;;;;;;;26.83;13.88;;;2.90;97.50;;;;;;2067045;28;20122;-74
2021/03/17 05:40:21;;;;;;;26.77;13.88;;;2.90;97.60;;;;;;2067479;28;20030;-75
2021/03/17 05:41:22;;;;;;;28.13;14.90;;;3.00;97.50;;;;;;2067022;28;20034;-75
2021/03/17 05:42:24;;;;;;;28.23;14.18;;;2.90;97.60;;;;;;2067155;28;20033;-75
2021/03/17 05:43:24;;;;;;;26.83;14.15;;;2.90;97.40;;;;;;2066754;28;20444;-75
2021/03/17 05:44:25;;;;;;;25.00;14.40;;;2.90;97.50;;;;;;2067503;28;20034;-75
2021/03/17 05:45:27;;;;;;;23.75;14.10;;;2.90;97.30;;;;;;2067467;28;20057;-75
2021/03/17 05:46:31;;;;;;;25.42;14.20;;;2.90;97.30;;;;;;2067739;28;20504;-75
2021/03/17 05:47:32;;;;;;;26.35;14.60;;;2.90;97.40;;;;;;2067799;28;20036;-75
2021/03/17 05:48:33;;;;;;;26.50;14.82;;;2.90;97.50;;;;;;2068144;28;20034;-75
2021/03/17 05:49:36;;;;;;;29.85;15.05;;;2.90;97.30;;;;;;2067522;28;20052;-75
2021/03/17 05:50:38;;;;;;;31.20;15.50;;;2.90;97.30;;;;;;2074978;28;20042;-74
2021/03/17 05:51:40;;;;;;;28.02;14.77;;;2.90;97.40;;;;;;2070479;28;20034;-75
2021/03/17 05:52:42;;;;;;;28.75;15.57;;;2.90;97.50;;;;;;2069115;28;20026;-74
2021/03/17 05:53:44;;;;;;;29.90;14.60;;;2.90;97.50;;;;;;2067612;28;20038;-75
2021/03/17 05:54:46;;;;;;;25.92;14.52;;;3.00;97.40;;;;;;2065214;28;20038;-74
2021/03/17 05:55:47;;;;;;;26.23;14.18;;;3.00;97.40;;;;;;2073775;28;20080;-74
2021/03/17 05:56:47;;;;;;;23.55;13.30;;;3.00;97.10;;;;;;2074060;28;20095;-74
2021/03/17 05:57:48;;;;;;;25.60;14.18;;;3.00;97.10;;;;;;2075692;28;20497;-75
2021/03/17 05:58:50;;;;;;;29.50;14.93;;;3.00;97.00;;;;;;2075786;28;20049;-75
2021/03/17 05:59:51;;;;;;;30.05;14.93;;;3.00;96.90;;;;;;2075219;28;20030;-75
2021/03/17 06:00:51;;;;;;;27.30;14.75;;;3.00;97.00;;;;;;2075439;28;20048;-74
2021/03/17 06:01:54;;;;;;;24.73;14.65;;;2.90;97.00;;;;;;2070520;28;20057;-75
2021/03/17 06:02:56;;;;;;;26.98;14.40;;;2.90;97.10;;;;;;2078775;28;20108;-74
2021/03/17 06:04:06;;;;;;;25.38;14.63;;;2.90;97.00;;;;;;2064990;28;20023;-74
2021/03/17 06:05:10;;;;;;;26.92;14.70;;;2.90;97.10;;;;;;2059043;28;20046;-74
2021/03/17 06:06:13;;;;;;;27.27;14.50;;;2.90;97.10;;;;;;2073649;28;20069;-74
2021/03/17 06:07:24;;;;;;;31.08;15.63;;;2.90;97.30;;;;;;2080984;28;20022;-75
2021/03/17 06:08:27;;;;;;;28.52;15.10;;;2.90;97.30;;;;;;2078007;28;20090;-75
2021/03/17 06:09:28;;;;;;;26.75;14.68;;;2.90;97.20;;;;;;2080614;28;20037;-74
2021/03/17 06:10:32;;;;;;;28.85;15.00;;;2.90;97.30;;;;;;2078074;28;20397;-75
2021/03/17 06:11:34;;;;;;;24.63;14.85;;;2.90;97.20;;;;;;2070307;28;20050;-75
2021/03/17 06:12:36;;;;;;;31.55;15.15;;;2.90;97.10;;;;;;2078069;28;20117;-75
2021/03/17 06:13:45;;;;;;;24.20;14.07;;;2.90;97.10;;;;;;2072969;28;20022;-75
2021/03/17 06:14:49;;;;;;;27.15;14.55;;;2.90;97.00;;;;;;2068327;28;20114;-75
2021/03/17 06:16:00;;;;;;;20.95;13.63;;;2.90;97.00;;;;;;2068036;28;20092;-75
2021/03/17 06:17:05;;;;;;;25.40;13.73;;;2.90;97.10;;;;;;2069557;28;20486;-74
2021/03/17 06:18:27;;;;;;;29.08;14.13;;;3.00;97.20;;;;;;2076070;28;20045;-75
2021/03/17 06:19:32;;;;;;;25.92;14.18;;;2.90;96.90;;;;;;2073924;28;20085;-74
2021/03/17 06:20:33;;;;;;;26.63;14.32;;;3.00;97.10;;;;;;2069525;28;20498;-75
2021/03/17 06:21:34;;;;;;;24.77;14.40;;;3.00;97.00;;;;;;2071170;28;20026;-76
2021/03/17 06:22:36;;;;;;;27.67;14.93;;;3.00;97.00;;;;;;2070451;28;20026;-75
2021/03/17 06:23:37;;;;;;;28.50;14.93;;;3.00;97.10;;;;;;2073475;28;20078;-75
2021/03/17 06:24:39;;;;;;;31.27;14.98;;;3.00;97.30;;;;;;2065176;28;20066;-75
2021/03/17 06:25:44;;;;;;;28.77;15.00;;;3.00;97.20;;;;;;2064855;28;20633;-75
2021/03/17 06:26:46;;;;;;;24.55;13.55;;;3.00;97.20;;;;;;2065226;28;20035;-75
2021/03/17 06:27:47;;;;;;;27.42;14.20;;;3.10;96.90;;;;;;2074533;28;20023;-75
2021/03/17 06:28:48;;;;;;;30.80;14.40;;;3.00;96.50;;;;;;2074060;28;20078;-75
2021/03/17 06:29:49;;;;;;;25.42;13.55;;;3.00;96.70;;;;;;2072042;28;20049;-75
2021/03/17 06:30:53;;;;;;;21.30;12.90;;;3.00;96.80;;;;;;2081204;28;20049;-75
2021/03/17 06:31:54;;;;;;;29.75;13.60;;;3.00;96.90;;;;;;2081779;28;20026;-75
2021/03/17 06:32:55;;;;;;;25.17;13.82;;;3.00;96.70;;;;;;2082439;28;20038;-75
2021/03/17 06:33:56;;;;;;;25.27;13.85;;;3.00;96.70;;;;;;2060710;28;20035;-75
2021/03/17 06:34:57;;;;;;;25.50;13.63;;;3.10;96.90;;;;;;2058925;28;20034;-74
2021/03/17 06:36:18;;;;;;;24.88;13.55;;;3.10;96.80;;;;;;2081438;28;20053;-74
2021/03/17 06:37:34;;;;;;;20.58;13.15;;;3.10;96.80;;;;;;2064777;28;20517;-75
2021/03/17 06:38:35;;;;;;;27.65;14.10;;;3.10;96.60;;;;;;2059960;28;20058;-74
2021/03/17 06:39:36;;;;;;;23.00;12.90;;;3.20;96.70;;;;;;2071102;28;20042;-74
2021/03/17 06:40:38;;;;;;;27.25;13.40;;;3.20;96.60;;;;;;2071287;28;20053;-74
2021/03/17 06:41:43;;;;;;;22.98;13.27;;;3.20;96.20;;;;;;2077381;28;20064;-75
2021/03/17 06:42:44;;;;;;;29.38;13.55;;;3.20;96.40;;;;;;2076896;28;20022;-74
2021/03/17 06:43:50;;;;;;;27.35;13.27;;;3.20;96.20;;;;;;2073626;28;20506;-74
2021/03/17 06:44:57;;;;;;;22.27;12.40;;;3.20;96.30;;;;;;2073201;28;20069;-74
2021/03/17 06:46:02;;;;;;;24.52;13.25;;;3.20;96.20;;;;;;2057147;28;20077;-75
2021/03/17 06:47:13;;;;;;;23.45;13.68;;;3.20;96.50;;;;;;2056143;28;20524;-75
2021/03/17 06:48:20;;;;;;;27.77;13.65;;;3.20;96.40;;;;;;2060304;28;20054;-75
2021/03/17 06:49:35;;;;;;;25.45;13.05;;;3.10;96.30;;;;;;2066395;28;20489;-75
2021/03/17 06:50:36;;;;;;;23.00;13.23;;;3.20;96.30;;;;;;2072588;28;20121;-70
2021/03/17 06:51:36;;;;;;;23.90;12.90;;;3.20;96.40;;;;;;2072921;28;20022;-70
2021/03/17 06:52:39;;;;;;;19.98;12.68;;;3.20;96.20;;;;;;2073737;28;20125;-71
2021/03/17 06:53:44;;;;;;;29.55;13.63;;;3.20;96.20;;;;;;2072436;28;20020;-75
2021/03/17 06:55:08;;;;;;;25.60;13.02;;;3.20;96.40;;;;;;2065768;28;20019;-75
2021/03/17 06:56:27;;;;;;;24.05;13.20;;;3.20;96.10;;;;;;2069037;28;20035;-75
2021/03/17 06:57:28;;;;;;;23.40;13.05;;;3.20;96.10;;;;;;2067759;28;20109;-75
2021/03/17 06:58:38;;;;;;;22.90;12.70;;;3.10;95.90;;;;;;2067331;28;20045;-75
2021/03/17 06:59:39;;;;;;;22.02;13.65;;;3.10;96.00;;;;;;2072741;28;20030;-71
2021/03/17 07:00:40;;;;;;;24.88;13.88;;;3.00;95.90;;;;;;2073787;28;20034;-75
2021/03/17 07:01:49;;;;;;;27.70;14.15;;;3.10;96.10;;;;;;2066553;28;20023;-75
2021/03/17 07:02:54;;;;;;;26.00;13.32;;;3.00;96.20;;;;;;2066746;28;20026;-77
2021/03/17 07:03:57;;;;;;;25.92;13.30;;;3.00;96.20;;;;;;2075880;28;20057;-77
2021/03/17 07:04:58;;;;;;;28.63;13.50;;;3.00;96.20;;;;;;2068929;28;20030;-76
2021/03/17 07:06:01;;;;;;;25.33;13.02;;;3.00;96.10;;;;;;2059166;28;20043;-76
2021/03/17 07:07:03;;;;;;;23.55;13.20;;;3.10;96.10;;;;;;2067443;28;20038;-75
2021/03/17 07:08:07;;;;;;;29.40;13.77;;;3.10;96.10;;;;;;2067065;28;20045;-77
2021/03/17 07:09:20;;;;;;;20.58;13.52;;;3.10;96.10;;;;;;2068983;28;20026;-76
2021/03/17 07:10:46;;;;;;;23.35;12.80;;;3.10;96.30;;;;;;2071748;28;20051;-76
2021/03/17 07:11:49;;;;;;;27.05;12.73;;;3.10;96.20;;;;;;2069513;28;20149;-74
2021/03/17 07:12:53;;;;;;;22.55;13.23;;;3.10;96.00;;;;;;2058798;28;20030;-74
2021/03/17 07:13:56;;;;;;;24.25;13.27;;;3.10;96.00;;;;;;2059089;28;20030;-73
2021/03/17 07:15:08;;;;;;;20.63;12.68;;;3.10;96.10;;;;;;2076279;28;20025;-74
2021/03/17 07:16:09;;;;;;;21.38;12.85;;;3.10;96.30;;;;;;2073530;28;20092;-73
2021/03/17 07:17:32;;;;;;;23.67;12.95;;;3.20;96.20;;;;;;2074729;28;20089;-73
2021/03/17 07:18:33;;;;;;;24.38;12.32;;;3.30;96.00;;;;;;2071095;28;20034;-74
2021/03/17 07:19:38;;;;;;;21.08;12.32;;;3.30;96.00;;;;;;2066156;28;20121;-73
2021/03/17 07:20:43;;;;;;;21.45;12.48;;;3.30;96.00;;;;;;2073367;28;20030;-73
2021/03/17 07:21:43;;;;;;;19.85;12.05;;;3.40;96.00;;;;;;2073365;28;20109;-73
2021/03/17 07:22:44;;;;;;;21.90;12.52;;;3.30;95.80;;;;;;2072574;28;20751;-73
2021/03/17 07:23:45;;;;;;;22.10;12.40;;;3.30;95.70;;;;;;2073200;28;20100;-74
2021/03/17 07:24:51;;;;;;;24.52;12.60;;;3.30;95.80;;;;;;2065716;28;20034;-72
2021/03/17 07:26:16;;;;;;;24.15;12.52;;;3.20;95.90;;;;;;2065602;28;20073;-73
2021/03/17 07:27:19;;;;;;;25.83;12.98;;;3.20;96.00;;;;;;2073914;28;20097;-74
2021/03/17 07:28:20;;;;;;;24.02;12.95;;;3.10;96.10;;;;;;2073495;28;20549;-74
2021/03/17 07:29:21;;;;;;;21.75;12.60;;;3.20;96.30;;;;;;2073666;28;20018;-74
2021/03/17 07:30:22;;;;;;;22.67;12.15;;;3.20;96.30;;;;;;2073683;28;20034;-71
2021/03/17 07:31:25;;;;;;;21.95;12.00;;;3.20;95.90;;;;;;2064834;28;20038;-73
2021/03/17 07:32:25;;;;;;;25.52;11.95;;;3.30;95.80;;;;;;2073023;28;20032;-72
2021/03/17 07:33:26;;;;;;;24.13;12.35;;;3.30;95.70;;;;;;2072428;28;20137;-70
2021/03/17 07:34:27;;;;;;;21.85;11.88;;;3.30;95.50;;;;;;2072762;28;20076;-73
2021/03/17 07:35:30;;;;;;;26.25;12.43;;;3.40;95.40;;;;;;2073273;28;20053;-72
2021/03/17 07:36:35;;;;;;;22.83;13.18;;;3.30;95.40;;;;;;2073215;28;20493;-73
2021/03/17 07:37:36;;;;;;;25.35;12.40;;;3.30;95.50;;;;;;2072745;28;20070;-72
2021/03/17 07:38:37;;;;;;;23.92;12.25;;;3.30;95.60;;;;;;2066350;28;20497;-74
2021/03/17 07:39:43;;;;;;;20.77;11.52;;;3.40;95.60;;;;;;2066235;28;20040;-74
2021/03/17 07:40:46;;;;;;;24.45;12.18;;;3.40;95.50;;;;;;2065332;28;20027;-72
2021/03/17 07:41:48;;;;;;;22.67;12.23;;;3.40;95.70;;;;;;2065580;28;20010;-74
2021/03/17 07:42:49;;;;;;;23.98;12.30;;;3.40;95.60;;;;;;2065356;28;20049;-72
2021/03/17 07:43:53;;;;;;;28.05;13.10;;;3.40;95.70;;;;;;2072792;28;20060;-73
2021/03/17 07:44:54;;;;;;;26.50;12.70;;;3.40;95.50;;;;;;2072796;28;20022;-74
2021/03/17 07:45:56;;;;;;;28.58;12.73;;;3.40;95.40;;;;;;2065660;28;20561;-71
2021/03/17 07:46:59;;;;;;;23.33;12.65;;;3.40;95.50;;;;;;2065447;28;20073;-77
2021/03/17 07:48:05;;;;;;;19.42;11.70;;;3.30;95.60;;;;;;2074663;28;20068;-81
2021/03/17 07:49:07;;;;;;;24.70;13.05;;;3.30;95.40;;;;;;2073181;28;20140;-75
2021/03/17 07:50:08;;;;;;;20.63;12.07;;;3.30;95.60;;;;;;2070430;28;20022;-77
2021/03/17 07:51:10;;;;;;;26.20;12.52;;;3.30;95.60;;;;;;2065441;28;20034;-76
2021/03/17 07:52:31;;;;;;;22.92;11.93;;;3.30;95.80;;;;;;2072767;28;20515;-75
2021/03/17 07:53:35;;;;;;;28.10;13.00;;;3.30;95.50;;;;;;2070474;28;20813;-75
2021/03/17 07:54:37;;;;;;;21.75;12.40;;;3.30;95.50;;;;;;2058163;28;20463;-74
2021/03/17 07:55:43;;;;;;;26.40;13.20;;;3.20;95.50;;;;;;2058412;28;20058;-74
2021/03/17 07:56:45;;;;;;;22.77;12.05;;;3.20;95.50;;;;;;2065952;28;20461;-79
2021/03/17 07:57:46;;;;;;;22.13;12.65;;;3.20;95.70;;;;;;2076086;28;20085;-80
2021/03/17 07:58:51;;;;;;;27.92;13.48;;;3.20;95.70;;;;;;2081566;28;20062;-77
2021/03/17 07:59:55;;;;;;;22.48;12.93;;;3.20;95.80;;;;;;2066746;28;20034;-79
2021/03/17 08:00:57;;;;;;;26.15;13.00;;;3.30;95.70;;;;;;2057146;28;20062;-77
2021/03/17 08:01:59;;;;;;;26.08;13.23;;;3.30;95.60;;;;;;2053789;28;20027;-82
2021/03/17 08:02:59;;;;;;;27.08;13.25;;;3.30;95.60;;;;;;2064119;28;20066;-82
2021/03/17 08:04:00;;;;;;;27.30;13.70;;;3.40;95.60;;;;;;2069865;28;20030;-79
2021/03/17 08:05:03;;;;;;;27.52;13.27;;;3.40;95.60;;;;;;2068726;28;20037;-79
2021/03/17 08:06:05;;;;;;;25.30;13.02;;;3.40;95.50;;;;;;2079786;28;20032;-79
2021/03/17 08:07:06;;;;;;;30.60;13.45;;;3.40;95.50;;;;;;2064080;28;20034;-77
2021/03/17 08:08:09;;;;;;;27.83;14.30;;;3.50;95.60;;;;;;2059935;28;20562;-78
2021/03/17 08:09:11;;;;;;;27.27;13.18;;;3.40;95.60;;;;;;2075958;28;20254;-78
2021/03/17 08:10:11;;;;;;;27.27;13.63;;;3.40;95.70;;;;;;2068503;28;20018;-77